sensor_id;sensor_type;location;lat;lon;timestamp;temperature;humidity
15937;DHT22;9163;48.818;8.976;2022-10-17T00:01:48;14.60;99.90
15937;DHT22;9163;48.818;8.976;2022-10-17T00:04:16;14.60;99.90
15937;DHT22;9163;48.818;8.976;2022-10-17T00:06:43;14.50;99.90
15937;DHT22;9163;48.818;8.976;2022-10-17T00:09:10;14.50;99.90
15937;DHT22;9163;48.818;8.976;2022-10-17T00:11:38;14.40;99.90
15937;DHT22;9163;48.818;8.976;2022-10-17T00:14:06;14.40;99.90
15937;DHT22;9163;48.818;8.976;2022-10-17T00:16:35;14.30;99.90
15937;DHT22;9163;48.818;8.976;2022-10-17T00:19:03;14.30;99.90
15937;DHT22;9163;48.818;8.976;2022-10-17T00:21:30;14.30;99.90
15937;DHT22;9163;48.818;8.976;2022-10-17T00:23:58;14.30;99.90
15937;DHT22;9163;48.818;8.976;2022-10-17T00:26:25;14.30;99.90
15937;DHT22;9163;48.818;8.976;2022-10-17T00:28:54;14.40;99.90
15937;DHT22;9163;48.818;8.976;2022-10-17T00:31:23;14.40;99.90
15937;DHT22;9163;48.818;8.976;2022-10-17T00:33:50;14.40;99.90
15937;DHT22;9163;48.818;8.976;2022-10-17T00:36:20;14.40;99.90
15937;DHT22;9163;48.818;8.976;2022-10-17T00:38:50;14.40;99.90
15937;DHT22;9163;48.818;8.976;2022-10-17T00:41:20;14.40;99.90
15937;DHT22;9163;48.818;8.976;2022-10-17T00:43:50;14.30;99.90
15937;DHT22;9163;48.818;8.976;2022-10-17T00:46:19;14.30;99.90
15937;DHT22;9163;48.818;8.976;2022-10-17T00:48:49;14.30;99.90
15937;DHT22;9163;48.818;8.976;2022-10-17T00:51:18;14.30;99.90
15937;DHT22;9163;48.818;8.976;2022-10-17T00:53:46;14.30;99.90
15937;DHT22;9163;48.818;8.976;2022-10-17T00:56:14;14.20;99.90
15937;DHT22;9163;48.818;8.976;2022-10-17T00:58:42;14.20;99.90
15937;DHT22;9163;48.818;8.976;2022-10-17T01:01:09;14.20;99.90
15937;DHT22;9163;48.818;8.976;2022-10-17T01:03:38;14.10;99.90
15937;DHT22;9163;48.818;8.976;2022-10-17T01:06:05;14.20;99.90
15937;DHT22;9163;48.818;8.976;2022-10-17T01:08:32;14.10;99.90
15937;DHT22;9163;48.818;8.976;2022-10-17T01:11:07;14.10;99.90
15937;DHT22;9163;48.818;8.976;2022-10-17T01:13:39;14.10;99.90
15937;DHT22;9163;48.818;8.976;2022-10-17T01:16:12;14.10;99.90
15937;DHT22;9163;48.818;8.976;2022-10-17T01:18:50;14.10;99.90
15937;DHT22;9163;48.818;8.976;2022-10-17T01:21:29;14.10;99.90
15937;DHT22;9163;48.818;8.976;2022-10-17T01:24:22;14.20;99.90
15937;DHT22;9163;48.818;8.976;2022-10-17T01:27:04;14.10;99.90
15937;DHT22;9163;48.818;8.976;2022-10-17T01:29:56;14.00;99.90
15937;DHT22;9163;48.818;8.976;2022-10-17T01:32:32;14.00;99.90
15937;DHT22;9163;48.818;8.976;2022-10-17T01:35:04;13.90;99.90
15937;DHT22;9163;48.818;8.976;2022-10-17T01:37:37;13.80;99.90
15937;DHT22;9163;48.818;8.976;2022-10-17T01:40:09;13.80;99.90
15937;DHT22;9163;48.818;8.976;2022-10-17T01:42:43;13.80;99.90
15937;DHT22;9163;48.818;8.976;2022-10-17T01:45:17;13.70;99.90
15937;DHT22;9163;48.818;8.976;2022-10-17T01:47:49;13.70;99.90
15937;DHT22;9163;48.818;8.976;2022-10-17T01:50:20;13.60;99.90
15937;DHT22;9163;48.818;8.976;2022-10-17T01:52:52;13.60;99.90
15937;DHT22;9163;48.818;8.976;2022-10-17T01:55:22;13.60;99.90
15937;DHT22;9163;48.818;8.976;2022-10-17T01:57:53;13.50;99.90
15937;DHT22;9163;48.818;8.976;2022-10-17T02:00:23;13.50;99.90
15937;DHT22;9163;48.818;8.976;2022-10-17T02:02:55;13.40;99.90
15937;DHT22;9163;48.818;8.976;2022-10-17T02:05:27;13.30;99.90
15937;DHT22;9163;48.818;8.976;2022-10-17T02:07:54;13.20;99.90
15937;DHT22;9163;48.818;8.976;2022-10-17T02:10:29;13.20;99.90
15937;DHT22;9163;48.818;8.976;2022-10-17T02:13:05;13.20;99.90
15937;DHT22;9163;48.818;8.976;2022-10-17T02:15:47;13.20;99.90
15937;DHT22;9163;48.818;8.976;2022-10-17T02:18:30;13.20;99.90
15937;DHT22;9163;48.818;8.976;2022-10-17T02:21:02;13.20;99.90
15937;DHT22;9163;48.818;8.976;2022-10-17T02:23:37;13.30;99.90
15937;DHT22;9163;48.818;8.976;2022-10-17T02:26:12;13.40;99.90
15937;DHT22;9163;48.818;8.976;2022-10-17T02:28:46;13.30;99.90
15937;DHT22;9163;48.818;8.976;2022-10-17T02:31:21;13.40;99.90
15937;DHT22;9163;48.818;8.976;2022-10-17T02:33:53;13.40;99.90
15937;DHT22;9163;48.818;8.976;2022-10-17T02:36:26;13.50;99.90
15937;DHT22;9163;48.818;8.976;2022-10-17T02:38:56;13.50;99.90
15937;DHT22;9163;48.818;8.976;2022-10-17T02:41:24;13.50;99.90
15937;DHT22;9163;48.818;8.976;2022-10-17T02:43:52;13.50;99.90
15937;DHT22;9163;48.818;8.976;2022-10-17T02:46:21;13.50;99.90
15937;DHT22;9163;48.818;8.976;2022-10-17T02:48:53;13.40;99.90
15937;DHT22;9163;48.818;8.976;2022-10-17T02:51:27;13.40;99.90
15937;DHT22;9163;48.818;8.976;2022-10-17T02:54:04;13.40;99.90
15937;DHT22;9163;48.818;8.976;2022-10-17T02:56:36;13.40;99.90
15937;DHT22;9163;48.818;8.976;2022-10-17T02:59:08;13.40;99.90
15937;DHT22;9163;48.818;8.976;2022-10-17T03:01:37;13.40;99.90
15937;DHT22;9163;48.818;8.976;2022-10-17T03:04:07;13.30;99.90
15937;DHT22;9163;48.818;8.976;2022-10-17T03:06:35;13.30;99.90
15937;DHT22;9163;48.818;8.976;2022-10-17T03:09:02;13.20;99.90
15937;DHT22;9163;48.818;8.976;2022-10-17T03:11:30;13.20;99.90
15937;DHT22;9163;48.818;8.976;2022-10-17T03:13:57;13.20;99.90
15937;DHT22;9163;48.818;8.976;2022-10-17T03:16:24;13.20;99.90
15937;DHT22;9163;48.818;8.976;2022-10-17T03:18:51;13.20;99.90
15937;DHT22;9163;48.818;8.976;2022-10-17T03:21:20;13.20;99.90
15937;DHT22;9163;48.818;8.976;2022-10-17T03:23:47;13.20;99.90
15937;DHT22;9163;48.818;8.976;2022-10-17T03:26:14;13.10;99.90
15937;DHT22;9163;48.818;8.976;2022-10-17T03:28:41;13.10;99.90
15937;DHT22;9163;48.818;8.976;2022-10-17T03:31:09;13.10;99.90
15937;DHT22;9163;48.818;8.976;2022-10-17T03:33:37;13.20;99.90
15937;DHT22;9163;48.818;8.976;2022-10-17T03:36:05;13.10;99.90
15937;DHT22;9163;48.818;8.976;2022-10-17T03:38:34;13.10;99.90
15937;DHT22;9163;48.818;8.976;2022-10-17T03:41:02;13.10;99.90
15937;DHT22;9163;48.818;8.976;2022-10-17T03:43:30;13.10;99.90
15937;DHT22;9163;48.818;8.976;2022-10-17T03:45:58;13.00;99.90
15937;DHT22;9163;48.818;8.976;2022-10-17T03:48:27;13.00;99.90
15937;DHT22;9163;48.818;8.976;2022-10-17T03:50:57;12.90;99.90
15937;DHT22;9163;48.818;8.976;2022-10-17T03:53:25;12.90;99.90
15937;DHT22;9163;48.818;8.976;2022-10-17T03:55:53;12.90;99.90
15937;DHT22;9163;48.818;8.976;2022-10-17T03:58:21;12.80;99.90
15937;DHT22;9163;48.818;8.976;2022-10-17T04:00:48;12.80;99.90
15937;DHT22;9163;48.818;8.976;2022-10-17T04:03:15;12.70;99.90
15937;DHT22;9163;48.818;8.976;2022-10-17T04:05:42;12.70;99.90
15937;DHT22;9163;48.818;8.976;2022-10-17T04:08:09;12.70;99.90
15937;DHT22;9163;48.818;8.976;2022-10-17T04:10:36;12.70;99.90
15937;DHT22;9163;48.818;8.976;2022-10-17T04:13:05;12.70;99.90
15937;DHT22;9163;48.818;8.976;2022-10-17T04:15:32;12.70;99.90
15937;DHT22;9163;48.818;8.976;2022-10-17T04:17:59;12.70;99.90
15937;DHT22;9163;48.818;8.976;2022-10-17T04:20:26;12.80;99.90
15937;DHT22;9163;48.818;8.976;2022-10-17T04:22:53;12.90;99.90
15937;DHT22;9163;48.818;8.976;2022-10-17T04:25:21;12.90;99.90
15937;DHT22;9163;48.818;8.976;2022-10-17T04:27:48;12.90;99.90
15937;DHT22;9163;48.818;8.976;2022-10-17T04:30:16;12.90;99.90
15937;DHT22;9163;48.818;8.976;2022-10-17T04:32:43;13.00;99.90
15937;DHT22;9163;48.818;8.976;2022-10-17T04:35:11;13.00;99.90
15937;DHT22;9163;48.818;8.976;2022-10-17T04:37:38;12.90;99.90
15937;DHT22;9163;48.818;8.976;2022-10-17T04:40:06;12.90;99.90
15937;DHT22;9163;48.818;8.976;2022-10-17T04:42:34;12.90;99.90
15937;DHT22;9163;48.818;8.976;2022-10-17T04:45:01;12.90;99.90
15937;DHT22;9163;48.818;8.976;2022-10-17T04:47:30;12.90;99.90
15937;DHT22;9163;48.818;8.976;2022-10-17T04:49:57;12.80;99.90
15937;DHT22;9163;48.818;8.976;2022-10-17T04:52:24;12.70;99.90
15937;DHT22;9163;48.818;8.976;2022-10-17T04:54:52;12.70;99.90
15937;DHT22;9163;48.818;8.976;2022-10-17T04:57:19;12.70;99.90
15937;DHT22;9163;48.818;8.976;2022-10-17T04:59:46;12.70;99.90
15937;DHT22;9163;48.818;8.976;2022-10-17T05:02:13;12.70;99.90
15937;DHT22;9163;48.818;8.976;2022-10-17T05:04:42;12.80;99.90
15937;DHT22;9163;48.818;8.976;2022-10-17T05:07:09;12.70;99.90
15937;DHT22;9163;48.818;8.976;2022-10-17T05:09:36;12.80;99.90
15937;DHT22;9163;48.818;8.976;2022-10-17T05:12:03;12.80;99.90
15937;DHT22;9163;48.818;8.976;2022-10-17T05:14:31;12.80;99.90
15937;DHT22;9163;48.818;8.976;2022-10-17T05:16:58;12.90;99.90
15937;DHT22;9163;48.818;8.976;2022-10-17T05:19:25;12.90;99.90
15937;DHT22;9163;48.818;8.976;2022-10-17T05:21:53;12.90;99.90
15937;DHT22;9163;48.818;8.976;2022-10-17T05:24:20;12.80;99.90
15937;DHT22;9163;48.818;8.976;2022-10-17T05:26:49;12.90;99.90
15937;DHT22;9163;48.818;8.976;2022-10-17T05:29:16;12.90;99.90
15937;DHT22;9163;48.818;8.976;2022-10-17T05:31:44;12.90;99.90
15937;DHT22;9163;48.818;8.976;2022-10-17T05:34:11;13.00;99.90
15937;DHT22;9163;48.818;8.976;2022-10-17T05:36:38;13.00;99.90
15937;DHT22;9163;48.818;8.976;2022-10-17T05:39:06;12.90;99.90
15937;DHT22;9163;48.818;8.976;2022-10-17T05:41:34;12.90;99.90
15937;DHT22;9163;48.818;8.976;2022-10-17T05:44:01;13.00;99.90
15937;DHT22;9163;48.818;8.976;2022-10-17T05:46:28;13.00;99.90
15937;DHT22;9163;48.818;8.976;2022-10-17T05:48:55;13.00;99.90
15937;DHT22;9163;48.818;8.976;2022-10-17T05:51:23;13.00;99.90
15937;DHT22;9163;48.818;8.976;2022-10-17T05:53:50;13.00;99.90
15937;DHT22;9163;48.818;8.976;2022-10-17T05:56:19;13.10;99.90
15937;DHT22;9163;48.818;8.976;2022-10-17T05:58:46;13.20;99.90
15937;DHT22;9163;48.818;8.976;2022-10-17T06:01:14;13.30;99.90
15937;DHT22;9163;48.818;8.976;2022-10-17T06:03:41;13.30;99.90
15937;DHT22;9163;48.818;8.976;2022-10-17T06:06:10;13.30;99.90
15937;DHT22;9163;48.818;8.976;2022-10-17T06:08:37;13.40;99.90
15937;DHT22;9163;48.818;8.976;2022-10-17T06:11:05;13.50;99.90
15937;DHT22;9163;48.818;8.976;2022-10-17T06:13:33;13.60;99.90
15937;DHT22;9163;48.818;8.976;2022-10-17T06:16:01;13.70;99.90
15937;DHT22;9163;48.818;8.976;2022-10-17T06:18:28;13.70;99.90
15937;DHT22;9163;48.818;8.976;2022-10-17T06:21:01;13.70;99.90
15937;DHT22;9163;48.818;8.976;2022-10-17T06:23:28;13.80;99.90
15937;DHT22;9163;48.818;8.976;2022-10-17T06:25:58;13.80;99.90
15937;DHT22;9163;48.818;8.976;2022-10-17T06:28:25;13.70;99.90
15937;DHT22;9163;48.818;8.976;2022-10-17T06:30:54;13.90;99.90
15937;DHT22;9163;48.818;8.976;2022-10-17T06:33:21;13.90;99.90
15937;DHT22;9163;48.818;8.976;2022-10-17T06:35:52;14.10;99.90
15937;DHT22;9163;48.818;8.976;2022-10-17T06:38:20;14.20;99.90
15937;DHT22;9163;48.818;8.976;2022-10-17T06:40:47;14.20;99.90
15937;DHT22;9163;48.818;8.976;2022-10-17T06:43:14;14.30;99.90
15937;DHT22;9163;48.818;8.976;2022-10-17T06:45:41;14.40;99.90
15937;DHT22;9163;48.818;8.976;2022-10-17T06:48:10;14.40;99.90
15937;DHT22;9163;48.818;8.976;2022-10-17T06:50:37;14.60;99.90
15937;DHT22;9163;48.818;8.976;2022-10-17T06:53:04;14.70;99.90
15937;DHT22;9163;48.818;8.976;2022-10-17T06:55:32;14.80;99.90
15937;DHT22;9163;48.818;8.976;2022-10-17T06:57:59;14.80;99.90
15937;DHT22;9163;48.818;8.976;2022-10-17T07:00:26;15.00;99.90
15937;DHT22;9163;48.818;8.976;2022-10-17T07:02:53;15.10;99.90
15937;DHT22;9163;48.818;8.976;2022-10-17T07:05:22;15.20;99.90
15937;DHT22;9163;48.818;8.976;2022-10-17T07:07:49;15.00;99.90
15937;DHT22;9163;48.818;8.976;2022-10-17T07:10:16;15.10;99.90
15937;DHT22;9163;48.818;8.976;2022-10-17T07:12:43;15.20;99.90
15937;DHT22;9163;48.818;8.976;2022-10-17T07:15:11;15.20;99.90
15937;DHT22;9163;48.818;8.976;2022-10-17T07:17:38;15.20;99.90
15937;DHT22;9163;48.818;8.976;2022-10-17T07:20:06;15.50;99.90
15937;DHT22;9163;48.818;8.976;2022-10-17T07:22:35;15.60;99.90
15937;DHT22;9163;48.818;8.976;2022-10-17T07:25:03;15.70;99.90
15937;DHT22;9163;48.818;8.976;2022-10-17T07:27:30;16.00;99.90
15937;DHT22;9163;48.818;8.976;2022-10-17T07:29:57;16.00;99.90
15937;DHT22;9163;48.818;8.976;2022-10-17T07:32:24;16.10;99.90
15937;DHT22;9163;48.818;8.976;2022-10-17T07:34:52;16.20;99.90
15937;DHT22;9163;48.818;8.976;2022-10-17T07:37:19;16.40;99.90
15937;DHT22;9163;48.818;8.976;2022-10-17T07:39:47;16.30;99.90
15937;DHT22;9163;48.818;8.976;2022-10-17T07:42:14;16.60;99.90
15937;DHT22;9163;48.818;8.976;2022-10-17T07:44:42;16.70;99.90
15937;DHT22;9163;48.818;8.976;2022-10-17T07:47:12;16.90;99.90
15937;DHT22;9163;48.818;8.976;2022-10-17T07:49:39;17.10;99.90
15937;DHT22;9163;48.818;8.976;2022-10-17T07:52:09;17.20;99.90
15937;DHT22;9163;48.818;8.976;2022-10-17T07:54:36;17.20;99.90
15937;DHT22;9163;48.818;8.976;2022-10-17T07:57:05;17.40;99.90
15937;DHT22;9163;48.818;8.976;2022-10-17T07:59:33;17.50;99.90
15937;DHT22;9163;48.818;8.976;2022-10-17T08:02:00;17.60;99.90
15937;DHT22;9163;48.818;8.976;2022-10-17T08:04:28;17.70;99.90
15937;DHT22;9163;48.818;8.976;2022-10-17T08:06:55;17.70;99.90
15937;DHT22;9163;48.818;8.976;2022-10-17T08:09:22;17.80;99.90
15937;DHT22;9163;48.818;8.976;2022-10-17T08:11:49;18.10;99.90
15937;DHT22;9163;48.818;8.976;2022-10-17T08:14:18;18.30;99.90
15937;DHT22;9163;48.818;8.976;2022-10-17T08:16:45;18.20;99.90
15937;DHT22;9163;48.818;8.976;2022-10-17T08:19:12;18.30;99.90
15937;DHT22;9163;48.818;8.976;2022-10-17T08:21:39;18.40;99.90
15937;DHT22;9163;48.818;8.976;2022-10-17T08:24:07;18.30;99.90
15937;DHT22;9163;48.818;8.976;2022-10-17T08:26:34;18.60;99.90
15937;DHT22;9163;48.818;8.976;2022-10-17T08:29:01;18.70;99.90
15937;DHT22;9163;48.818;8.976;2022-10-17T08:31:30;19.10;99.90
15937;DHT22;9163;48.818;8.976;2022-10-17T08:33:57;19.30;99.90
15937;DHT22;9163;48.818;8.976;2022-10-17T08:36:24;19.50;99.90
15937;DHT22;9163;48.818;8.976;2022-10-17T08:38:54;19.50;99.90
15937;DHT22;9163;48.818;8.976;2022-10-17T08:41:42;19.70;99.90
15937;DHT22;9163;48.818;8.976;2022-10-17T08:44:16;19.80;99.90
15937;DHT22;9163;48.818;8.976;2022-10-17T08:46:50;19.80;99.90
15937;DHT22;9163;48.818;8.976;2022-10-17T08:49:30;20.00;99.90
15937;DHT22;9163;48.818;8.976;2022-10-17T08:52:03;20.20;99.90
15937;DHT22;9163;48.818;8.976;2022-10-17T08:54:39;20.30;99.90
15937;DHT22;9163;48.818;8.976;2022-10-17T08:57:11;20.70;99.90
15937;DHT22;9163;48.818;8.976;2022-10-17T08:59:39;21.10;99.90
15937;DHT22;9163;48.818;8.976;2022-10-17T09:08:13;21.20;99.90
15937;DHT22;9163;48.818;8.976;2022-10-17T09:10:53;21.20;99.90
15937;DHT22;9163;48.818;8.976;2022-10-17T09:13:40;21.20;99.90
15937;DHT22;9163;48.818;8.976;2022-10-17T09:16:32;21.70;99.90
15937;DHT22;9163;48.818;8.976;2022-10-17T09:19:07;21.80;99.90
15937;DHT22;9163;48.818;8.976;2022-10-17T09:21:41;22.10;99.90
15937;DHT22;9163;48.818;8.976;2022-10-17T09:24:14;22.40;99.90
15937;DHT22;9163;48.818;8.976;2022-10-17T09:26:44;22.60;99.90
15937;DHT22;9163;48.818;8.976;2022-10-17T09:29:17;22.40;99.90
15937;DHT22;9163;48.818;8.976;2022-10-17T09:31:50;22.60;99.90
15937;DHT22;9163;48.818;8.976;2022-10-17T09:34:21;22.50;99.90
15937;DHT22;9163;48.818;8.976;2022-10-17T09:36:49;22.90;99.90
15937;DHT22;9163;48.818;8.976;2022-10-17T09:39:18;23.60;99.90
15937;DHT22;9163;48.818;8.976;2022-10-17T09:41:48;24.10;99.90
15937;DHT22;9163;48.818;8.976;2022-10-17T09:44:19;23.80;99.90
15937;DHT22;9163;48.818;8.976;2022-10-17T09:47:08;24.20;99.90
15937;DHT22;9163;48.818;8.976;2022-10-17T09:49:40;24.60;99.90
15937;DHT22;9163;48.818;8.976;2022-10-17T09:52:10;24.90;99.90
15937;DHT22;9163;48.818;8.976;2022-10-17T09:54:44;24.90;99.90
15937;DHT22;9163;48.818;8.976;2022-10-17T09:57:13;24.60;99.90
15937;DHT22;9163;48.818;8.976;2022-10-17T09:59:42;25.30;99.90
15937;DHT22;9163;48.818;8.976;2022-10-17T10:02:19;25.20;99.90
15937;DHT22;9163;48.818;8.976;2022-10-17T10:05:00;24.80;99.90
15937;DHT22;9163;48.818;8.976;2022-10-17T10:07:29;24.80;99.90
15937;DHT22;9163;48.818;8.976;2022-10-17T10:09:57;24.60;99.90
15937;DHT22;9163;48.818;8.976;2022-10-17T10:12:26;24.70;99.90
15937;DHT22;9163;48.818;8.976;2022-10-17T10:14:55;25.00;99.90
15937;DHT22;9163;48.818;8.976;2022-10-17T10:17:34;25.00;99.90
15937;DHT22;9163;48.818;8.976;2022-10-17T10:20:24;25.30;99.90
15937;DHT22;9163;48.818;8.976;2022-10-17T10:23:09;25.40;99.90
15937;DHT22;9163;48.818;8.976;2022-10-17T10:25:37;25.60;99.90
15937;DHT22;9163;48.818;8.976;2022-10-17T10:28:09;26.20;99.90
15937;DHT22;9163;48.818;8.976;2022-10-17T10:30:37;26.70;99.90
15937;DHT22;9163;48.818;8.976;2022-10-17T10:33:04;27.50;99.90
15937;DHT22;9163;48.818;8.976;2022-10-17T10:35:34;27.80;99.90
15937;DHT22;9163;48.818;8.976;2022-10-17T10:38:07;27.90;99.90
15937;DHT22;9163;48.818;8.976;2022-10-17T10:40:37;28.00;99.90
15937;DHT22;9163;48.818;8.976;2022-10-17T10:43:21;28.60;99.90
15937;DHT22;9163;48.818;8.976;2022-10-17T10:45:50;29.30;99.90
15937;DHT22;9163;48.818;8.976;2022-10-17T10:48:20;29.90;99.90
15937;DHT22;9163;48.818;8.976;2022-10-17T10:50:51;30.40;99.90
15937;DHT22;9163;48.818;8.976;2022-10-17T10:53:34;31.20;99.90
15937;DHT22;9163;48.818;8.976;2022-10-17T10:56:07;30.90;99.90
15937;DHT22;9163;48.818;8.976;2022-10-17T10:58:42;31.00;99.90
15937;DHT22;9163;48.818;8.976;2022-10-17T11:01:19;30.50;99.90
15937;DHT22;9163;48.818;8.976;2022-10-17T11:04:07;30.10;99.90
15937;DHT22;9163;48.818;8.976;2022-10-17T11:06:42;30.60;99.90
15937;DHT22;9163;48.818;8.976;2022-10-17T11:09:22;30.40;99.90
15937;DHT22;9163;48.818;8.976;2022-10-17T11:11:55;31.10;99.90
15937;DHT22;9163;48.818;8.976;2022-10-17T11:14:33;32.00;99.90
15937;DHT22;9163;48.818;8.976;2022-10-17T11:17:06;31.20;99.90
15937;DHT22;9163;48.818;8.976;2022-10-17T11:19:39;31.90;99.90
15937;DHT22;9163;48.818;8.976;2022-10-17T11:22:15;33.00;99.90
15937;DHT22;9163;48.818;8.976;2022-10-17T11:24:49;32.60;99.90
15937;DHT22;9163;48.818;8.976;2022-10-17T11:27:22;33.30;99.90
15937;DHT22;9163;48.818;8.976;2022-10-17T11:29:50;33.70;99.40
15937;DHT22;9163;48.818;8.976;2022-10-17T11:32:22;34.20;98.00
15937;DHT22;9163;48.818;8.976;2022-10-17T11:34:52;34.60;97.10
15937;DHT22;9163;48.818;8.976;2022-10-17T11:37:24;33.50;97.00
15937;DHT22;9163;48.818;8.976;2022-10-17T11:39:54;33.80;96.70
15937;DHT22;9163;48.818;8.976;2022-10-17T11:42:26;32.70;96.10
15937;DHT22;9163;48.818;8.976;2022-10-17T11:44:57;32.20;96.90
15937;DHT22;9163;48.818;8.976;2022-10-17T11:47:31;33.50;96.70
15937;DHT22;9163;48.818;8.976;2022-10-17T11:50:04;34.40;94.90
15937;DHT22;9163;48.818;8.976;2022-10-17T11:52:39;33.80;94.90
15937;DHT22;9163;48.818;8.976;2022-10-17T11:55:13;34.90;94.20
15937;DHT22;9163;48.818;8.976;2022-10-17T11:57:53;35.90;91.80
15937;DHT22;9163;48.818;8.976;2022-10-17T12:00:26;36.70;91.70
15937;DHT22;9163;48.818;8.976;2022-10-17T12:03:04;35.20;90.20
15937;DHT22;9163;48.818;8.976;2022-10-17T12:05:40;35.90;87.50
15937;DHT22;9163;48.818;8.976;2022-10-17T12:08:12;34.40;87.20
15937;DHT22;9163;48.818;8.976;2022-10-17T12:10:47;34.60;89.20
15937;DHT22;9163;48.818;8.976;2022-10-17T12:13:51;35.30;88.20
15937;DHT22;9163;48.818;8.976;2022-10-17T12:16:46;33.60;88.90
15937;DHT22;9163;48.818;8.976;2022-10-17T12:19:31;34.90;89.30
15937;DHT22;9163;48.818;8.976;2022-10-17T12:22:04;36.80;88.20
15937;DHT22;9163;48.818;8.976;2022-10-17T12:24:37;38.50;85.20
15937;DHT22;9163;48.818;8.976;2022-10-17T12:27:33;37.00;75.40
15937;DHT22;9163;48.818;8.976;2022-10-17T12:30:05;39.10;78.60
15937;DHT22;9163;48.818;8.976;2022-10-17T12:32:33;40.90;83.10
15937;DHT22;9163;48.818;8.976;2022-10-17T12:35:01;42.50;83.00
15937;DHT22;9163;48.818;8.976;2022-10-17T12:41:04;43.40;73.70
15937;DHT22;9163;48.818;8.976;2022-10-17T12:43:49;43.80;71.60
15937;DHT22;9163;48.818;8.976;2022-10-17T12:52:23;42.80;65.50
15937;DHT22;9163;48.818;8.976;2022-10-17T12:54:54;42.90;64.70
15937;DHT22;9163;48.818;8.976;2022-10-17T12:57:30;42.50;63.10
15937;DHT22;9163;48.818;8.976;2022-10-17T13:00:01;42.80;62.70
15937;DHT22;9163;48.818;8.976;2022-10-17T13:02:29;42.20;60.20
15937;DHT22;9163;48.818;8.976;2022-10-17T13:05:04;42.00;57.50
15937;DHT22;9163;48.818;8.976;2022-10-17T13:07:33;42.30;57.80
15937;DHT22;9163;48.818;8.976;2022-10-17T13:10:01;40.30;58.10
15937;DHT22;9163;48.818;8.976;2022-10-17T13:12:32;39.80;60.40
15937;DHT22;9163;48.818;8.976;2022-10-17T13:15:03;40.30;59.80
15937;DHT22;9163;48.818;8.976;2022-10-17T13:17:33;40.60;59.80
15937;DHT22;9163;48.818;8.976;2022-10-17T13:20:01;39.60;58.00
15937;DHT22;9163;48.818;8.976;2022-10-17T13:22:31;40.70;58.50
15937;DHT22;9163;48.818;8.976;2022-10-17T13:25:06;40.40;56.90
15937;DHT22;9163;48.818;8.976;2022-10-17T13:27:35;40.60;57.00
15937;DHT22;9163;48.818;8.976;2022-10-17T13:30:22;40.70;57.70
15937;DHT22;9163;48.818;8.976;2022-10-17T13:32:50;41.50;57.70
15937;DHT22;9163;48.818;8.976;2022-10-17T13:35:23;40.50;54.80
15937;DHT22;9163;48.818;8.976;2022-10-17T13:37:51;40.00;55.60
15937;DHT22;9163;48.818;8.976;2022-10-17T13:40:22;39.90;56.00
15937;DHT22;9163;48.818;8.976;2022-10-17T13:42:51;40.90;55.90
15937;DHT22;9163;48.818;8.976;2022-10-17T13:45:24;40.80;54.80
15937;DHT22;9163;48.818;8.976;2022-10-17T13:47:53;40.40;54.90
15937;DHT22;9163;48.818;8.976;2022-10-17T13:50:28;40.70;55.00
15937;DHT22;9163;48.818;8.976;2022-10-17T13:53:13;39.70;54.80
15937;DHT22;9163;48.818;8.976;2022-10-17T13:55:50;40.30;55.50
15937;DHT22;9163;48.818;8.976;2022-10-17T13:58:19;40.00;54.70
15937;DHT22;9163;48.818;8.976;2022-10-17T14:00:47;38.60;55.70
15937;DHT22;9163;48.818;8.976;2022-10-17T14:03:15;39.00;56.60
15937;DHT22;9163;48.818;8.976;2022-10-17T14:05:58;39.60;56.50
15937;DHT22;9163;48.818;8.976;2022-10-17T14:08:27;40.20;57.00
15937;DHT22;9163;48.818;8.976;2022-10-17T14:10:55;40.20;55.80
15937;DHT22;9163;48.818;8.976;2022-10-17T14:13:25;40.30;54.90
15937;DHT22;9163;48.818;8.976;2022-10-17T14:15:53;38.70;55.80
15937;DHT22;9163;48.818;8.976;2022-10-17T14:18:30;37.30;56.60
15937;DHT22;9163;48.818;8.976;2022-10-17T14:20:58;38.20;58.80
15937;DHT22;9163;48.818;8.976;2022-10-17T14:23:32;37.20;56.30
15937;DHT22;9163;48.818;8.976;2022-10-17T14:26:11;37.60;57.90
15937;DHT22;9163;48.818;8.976;2022-10-17T14:28:43;37.30;56.70
15937;DHT22;9163;48.818;8.976;2022-10-17T14:31:22;36.80;57.40
15937;DHT22;9163;48.818;8.976;2022-10-17T14:33:52;36.10;57.90
15937;DHT22;9163;48.818;8.976;2022-10-17T14:36:28;35.20;59.80
15937;DHT22;9163;48.818;8.976;2022-10-17T14:38:56;34.80;61.10
15937;DHT22;9163;48.818;8.976;2022-10-17T14:41:24;34.40;60.30
15937;DHT22;9163;48.818;8.976;2022-10-17T14:43:56;35.10;61.40
15937;DHT22;9163;48.818;8.976;2022-10-17T14:46:24;34.60;60.20
15937;DHT22;9163;48.818;8.976;2022-10-17T14:48:53;33.90;61.00
15937;DHT22;9163;48.818;8.976;2022-10-17T14:51:21;33.50;61.20
15937;DHT22;9163;48.818;8.976;2022-10-17T14:54:03;33.20;63.20
15937;DHT22;9163;48.818;8.976;2022-10-17T14:56:38;33.10;62.60
15937;DHT22;9163;48.818;8.976;2022-10-17T14:59:07;33.30;63.40
15937;DHT22;9163;48.818;8.976;2022-10-17T15:01:36;34.20;62.30
15937;DHT22;9163;48.818;8.976;2022-10-17T15:04:03;34.40;62.40
15937;DHT22;9163;48.818;8.976;2022-10-17T15:06:32;33.40;62.30
15937;DHT22;9163;48.818;8.976;2022-10-17T15:09:00;33.00;63.90
15937;DHT22;9163;48.818;8.976;2022-10-17T15:11:27;33.70;63.00
15937;DHT22;9163;48.818;8.976;2022-10-17T15:13:54;34.50;62.10
15937;DHT22;9163;48.818;8.976;2022-10-17T15:16:24;35.40;59.90
15937;DHT22;9163;48.818;8.976;2022-10-17T15:18:53;35.60;58.30
15937;DHT22;9163;48.818;8.976;2022-10-17T15:21:22;34.80;58.70
15937;DHT22;9163;48.818;8.976;2022-10-17T15:23:49;35.30;59.60
15937;DHT22;9163;48.818;8.976;2022-10-17T15:26:19;34.90;59.70
15937;DHT22;9163;48.818;8.976;2022-10-17T15:28:48;34.20;61.00
15937;DHT22;9163;48.818;8.976;2022-10-17T15:31:17;33.60;60.30
15937;DHT22;9163;48.818;8.976;2022-10-17T15:33:46;34.10;62.90
15937;DHT22;9163;48.818;8.976;2022-10-17T15:36:24;33.50;61.40
15937;DHT22;9163;48.818;8.976;2022-10-17T15:38:53;32.80;63.00
15937;DHT22;9163;48.818;8.976;2022-10-17T15:41:23;33.50;66.30
15937;DHT22;9163;48.818;8.976;2022-10-17T15:43:51;33.00;66.30
15937;DHT22;9163;48.818;8.976;2022-10-17T15:46:21;32.70;67.80
15937;DHT22;9163;48.818;8.976;2022-10-17T15:48:51;32.10;71.10
15937;DHT22;9163;48.818;8.976;2022-10-17T15:51:18;31.20;75.00
15937;DHT22;9163;48.818;8.976;2022-10-17T15:53:46;30.30;77.80
15937;DHT22;9163;48.818;8.976;2022-10-17T15:56:25;29.60;78.20
15937;DHT22;9163;48.818;8.976;2022-10-17T15:58:53;28.90;81.50
15937;DHT22;9163;48.818;8.976;2022-10-17T16:01:22;28.20;85.00
15937;DHT22;9163;48.818;8.976;2022-10-17T16:03:51;27.70;87.30
15937;DHT22;9163;48.818;8.976;2022-10-17T16:06:20;27.20;88.70
15937;DHT22;9163;48.818;8.976;2022-10-17T16:08:47;26.80;89.90
15937;DHT22;9163;48.818;8.976;2022-10-17T16:11:17;26.30;90.60
15937;DHT22;9163;48.818;8.976;2022-10-17T16:13:49;26.00;91.70
15937;DHT22;9163;48.818;8.976;2022-10-17T16:16:17;25.50;93.30
15937;DHT22;9163;48.818;8.976;2022-10-17T16:18:45;25.10;95.30
15937;DHT22;9163;48.818;8.976;2022-10-17T16:21:15;24.70;97.20
15937;DHT22;9163;48.818;8.976;2022-10-17T16:23:42;24.30;98.90